sensor_id;sensor_type;location;lat;lon;timestamp;pressure;altitude;pressure_sealevel;temperature
23992;BMP280;12205;50.600;4.608;2022-07-29T00:02:10;100281.66;;;20.97
23992;BMP280;12205;50.600;4.608;2022-07-29T00:04:38;100292.66;;;21.06
23992;BMP280;12205;50.600;4.608;2022-07-29T00:07:05;100294.63;;;21.05
23992;BMP280;12205;50.600;4.608;2022-07-29T00:09:36;100294.72;;;21.02
23992;BMP280;12205;50.600;4.608;2022-07-29T00:12:06;100288.59;;;20.98
23992;BMP280;12205;50.600;4.608;2022-07-29T00:14:48;100276.09;;;20.88
23992;BMP280;12205;50.600;4.608;2022-07-29T00:17:33;100284.72;;;20.99
23992;BMP280;12205;50.600;4.608;2022-07-29T00:20:04;100282.00;;;20.99
23992;BMP280;12205;50.600;4.608;2022-07-29T00:22:33;100281.66;;;20.97
23992;BMP280;12205;50.600;4.608;2022-07-29T00:25:05;100273.38;;;20.88
23992;BMP280;12205;50.600;4.608;2022-07-29T00:27:51;100272.72;;;20.83
23992;BMP280;12205;50.600;4.608;2022-07-29T00:30:20;100275.06;;;20.81
23992;BMP280;12205;50.600;4.608;2022-07-29T00:33:33;100275.25;;;20.74
23992;BMP280;12205;50.600;4.608;2022-07-29T00:36:01;100279.34;;;20.66
23992;BMP280;12205;50.600;4.608;2022-07-29T00:38:35;100279.03;;;20.64
23992;BMP280;12205;50.600;4.608;2022-07-29T00:41:07;100280.19;;;20.63
23992;BMP280;12205;50.600;4.608;2022-07-29T00:43:35;100274.84;;;20.59
23992;BMP280;12205;50.600;4.608;2022-07-29T00:46:04;100269.34;;;20.63
23992;BMP280;12205;50.600;4.608;2022-07-29T00:48:32;100269.34;;;20.63
23992;BMP280;12205;50.600;4.608;2022-07-29T00:51:04;100266.28;;;20.61
23992;BMP280;12205;50.600;4.608;2022-07-29T00:53:36;100269.88;;;20.58
23992;BMP280;12205;50.600;4.608;2022-07-29T00:56:06;100256.91;;;20.49
23992;BMP280;12205;50.600;4.608;2022-07-29T00:58:34;100263.44;;;20.52
23992;BMP280;12205;50.600;4.608;2022-07-29T01:01:05;100253.06;;;20.46
23992;BMP280;12205;50.600;4.608;2022-07-29T01:03:34;100257.31;;;20.48
23992;BMP280;12205;50.600;4.608;2022-07-29T01:06:02;100252.84;;;20.41
23992;BMP280;12205;50.600;4.608;2022-07-29T01:08:31;100254.44;;;20.38
23992;BMP280;12205;50.600;4.608;2022-07-29T01:11:01;100245.31;;;20.32
23992;BMP280;12205;50.600;4.608;2022-07-29T01:13:32;100251.53;;;20.29
23992;BMP280;12205;50.600;4.608;2022-07-29T01:16:23;100247.84;;;20.23
23992;BMP280;12205;50.600;4.608;2022-07-29T01:19:03;100244.09;;;20.17
23992;BMP280;12205;50.600;4.608;2022-07-29T01:21:51;100241.06;;;20.15
23992;BMP280;12205;50.600;4.608;2022-07-29T01:24:39;100238.84;;;20.10
23992;BMP280;12205;50.600;4.608;2022-07-29T01:27:37;100239.34;;;20.04
23992;BMP280;12205;50.600;4.608;2022-07-29T01:30:08;100232.13;;;19.98
23992;BMP280;12205;50.600;4.608;2022-07-29T01:32:38;100237.97;;;19.96
23992;BMP280;12205;50.600;4.608;2022-07-29T01:35:15;100230.66;;;19.93
23992;BMP280;12205;50.600;4.608;2022-07-29T01:37:50;100225.41;;;19.86
23992;BMP280;12205;50.600;4.608;2022-07-29T01:40:24;100207.97;;;19.71
23992;BMP280;12205;50.600;4.608;2022-07-29T01:42:58;100226.78;;;19.78
23992;BMP280;12205;50.600;4.608;2022-07-29T01:45:37;100224.25;;;19.71
23992;BMP280;12205;50.600;4.608;2022-07-29T01:48:13;100222.78;;;19.66
23992;BMP280;12205;50.600;4.608;2022-07-29T01:50:49;100228.94;;;19.66
23992;BMP280;12205;50.600;4.608;2022-07-29T01:53:26;100224.38;;;19.63
23992;BMP280;12205;50.600;4.608;2022-07-29T01:55:59;100226.03;;;19.57
23992;BMP280;12205;50.600;4.608;2022-07-29T01:58:30;100232.22;;;19.58
23992;BMP280;12205;50.600;4.608;2022-07-29T02:01:01;100221.47;;;19.54
23992;BMP280;12205;50.600;4.608;2022-07-29T02:03:31;100213.50;;;19.47
23992;BMP280;12205;50.600;4.608;2022-07-29T02:06:03;100222.22;;;19.55
23992;BMP280;12205;50.600;4.608;2022-07-29T02:08:34;100219.94;;;19.53
23992;BMP280;12205;50.600;4.608;2022-07-29T02:11:05;100217.59;;;19.55
23992;BMP280;12205;50.600;4.608;2022-07-29T02:13:35;100221.38;;;19.58
23992;BMP280;12205;50.600;4.608;2022-07-29T02:16:10;100218.28;;;19.59
23992;BMP280;12205;50.600;4.608;2022-07-29T02:18:43;100210.63;;;19.54
23992;BMP280;12205;50.600;4.608;2022-07-29T02:21:13;100221.47;;;19.54
23992;BMP280;12205;50.600;4.608;2022-07-29T02:23:46;100206.13;;;19.48
23992;BMP280;12205;50.600;4.608;2022-07-29T02:26:15;100210.13;;;19.43
23992;BMP280;12205;50.600;4.608;2022-07-29T02:28:45;100215.25;;;19.37
23992;BMP280;12205;50.600;4.608;2022-07-29T02:31:17;100218.88;;;19.31
23992;BMP280;12205;50.600;4.608;2022-07-29T02:33:47;100215.13;;;19.24
23992;BMP280;12205;50.600;4.608;2022-07-29T02:36:16;100218.41;;;19.16
23992;BMP280;12205;50.600;4.608;2022-07-29T02:38:44;100201.50;;;19.08
23992;BMP280;12205;50.600;4.608;2022-07-29T02:41:23;100215.41;;;19.10
23992;BMP280;12205;50.600;4.608;2022-07-29T02:43:56;100211.16;;;19.09
23992;BMP280;12205;50.600;4.608;2022-07-29T02:46:31;100219.28;;;19.09
23992;BMP280;12205;50.600;4.608;2022-07-29T02:49:08;100213.59;;;19.03
23992;BMP280;12205;50.600;4.608;2022-07-29T02:51:43;100217.16;;;19.00
23992;BMP280;12205;50.600;4.608;2022-07-29T02:54:23;100209.56;;;18.92
23992;BMP280;12205;50.600;4.608;2022-07-29T02:56:55;100225.34;;;18.97
23992;BMP280;12205;50.600;4.608;2022-07-29T02:59:27;100220.38;;;18.92
23992;BMP280;12205;50.600;4.608;2022-07-29T03:01:59;100231.34;;;18.84
23992;BMP280;12205;50.600;4.608;2022-07-29T03:04:28;100226.78;;;18.81
23992;BMP280;12205;50.600;4.608;2022-07-29T03:06:59;100213.00;;;18.72
23992;BMP280;12205;50.600;4.608;2022-07-29T03:09:28;100221.97;;;18.69
23992;BMP280;12205;50.600;4.608;2022-07-29T03:11:57;100207.84;;;18.58
23992;BMP280;12205;50.600;4.608;2022-07-29T03:14:25;100228.31;;;18.59
23992;BMP280;12205;50.600;4.608;2022-07-29T03:16:53;100237.34;;;18.52
23992;BMP280;12205;50.600;4.608;2022-07-29T03:19:22;100233.97;;;18.44
23992;BMP280;12205;50.600;4.608;2022-07-29T03:21:49;100239.03;;;18.42
23992;BMP280;12205;50.600;4.608;2022-07-29T03:24:29;100242.66;;;18.32
23992;BMP280;12205;50.600;4.608;2022-07-29T03:26:57;100247.38;;;18.28
23992;BMP280;12205;50.600;4.608;2022-07-29T03:29:25;100246.31;;;18.22
23992;BMP280;12205;50.600;4.608;2022-07-29T03:31:53;100253.72;;;18.18
23992;BMP280;12205;50.600;4.608;2022-07-29T03:34:22;100250.31;;;18.14
23992;BMP280;12205;50.600;4.608;2022-07-29T03:36:50;100242.69;;;18.05
23992;BMP280;12205;50.600;4.608;2022-07-29T03:39:21;100240.84;;;17.98
23992;BMP280;12205;50.600;4.608;2022-07-29T03:41:53;100240.53;;;17.93
23992;BMP280;12205;50.600;4.608;2022-07-29T03:44:23;100238.34;;;17.84
23992;BMP280;12205;50.600;4.608;2022-07-29T03:46:55;100236.88;;;17.79
23992;BMP280;12205;50.600;4.608;2022-07-29T03:49:26;100236.56;;;17.74
23992;BMP280;12205;50.600;4.608;2022-07-29T03:51:54;100235.44;;;17.67
23992;BMP280;12205;50.600;4.608;2022-07-29T03:54:22;100236.69;;;17.63
23992;BMP280;12205;50.600;4.608;2022-07-29T03:56:52;100235.56;;;17.60
23992;BMP280;12205;50.600;4.608;2022-07-29T03:59:20;100237.16;;;17.54
23992;BMP280;12205;50.600;4.608;2022-07-29T04:01:49;100224.16;;;17.42
23992;BMP280;12205;50.600;4.608;2022-07-29T04:04:17;100231.13;;;17.43
23992;BMP280;12205;50.600;4.608;2022-07-29T04:06:46;100238.19;;;17.37
23992;BMP280;12205;50.600;4.608;2022-07-29T04:09:14;100230.84;;;17.34
23992;BMP280;12205;50.600;4.608;2022-07-29T04:11:42;100234.38;;;17.31
23992;BMP280;12205;50.600;4.608;2022-07-29T04:14:09;100242.09;;;17.28
23992;BMP280;12205;50.600;4.608;2022-07-29T04:16:36;100243.69;;;17.26
23992;BMP280;12205;50.600;4.608;2022-07-29T04:19:03;100241.78;;;17.23
23992;BMP280;12205;50.600;4.608;2022-07-29T04:21:30;100246.81;;;17.17
23992;BMP280;12205;50.600;4.608;2022-07-29T04:23:59;100242.25;;;17.14
23992;BMP280;12205;50.600;4.608;2022-07-29T04:26:26;100241.53;;;17.10
23992;BMP280;12205;50.600;4.608;2022-07-29T04:28:53;100258.53;;;17.07
23992;BMP280;12205;50.600;4.608;2022-07-29T04:31:21;100259.34;;;17.04
23992;BMP280;12205;50.600;4.608;2022-07-29T04:33:48;100264.75;;;17.04
23992;BMP280;12205;50.600;4.608;2022-07-29T04:36:15;100270.16;;;17.04
23992;BMP280;12205;50.600;4.608;2022-07-29T04:38:43;100259.41;;;16.97
23992;BMP280;12205;50.600;4.608;2022-07-29T04:41:11;100260.97;;;16.90
23992;BMP280;12205;50.600;4.608;2022-07-29T04:43:39;100269.41;;;16.96
23992;BMP280;12205;50.600;4.608;2022-07-29T04:46:06;100277.13;;;16.98
23992;BMP280;12205;50.600;4.608;2022-07-29T04:48:33;100261.41;;;16.85
23992;BMP280;12205;50.600;4.608;2022-07-29T04:51:01;100276.41;;;16.94
23992;BMP280;12205;50.600;4.608;2022-07-29T04:53:28;100282.53;;;16.98
23992;BMP280;12205;50.600;4.608;2022-07-29T04:55:55;100287.94;;;16.98
23992;BMP280;12205;50.600;4.608;2022-07-29T04:58:24;100287.13;;;17.01
23992;BMP280;12205;50.600;4.608;2022-07-29T05:00:52;100283.31;;;16.98
23992;BMP280;12205;50.600;4.608;2022-07-29T05:03:19;100281.75;;;17.01
23992;BMP280;12205;50.600;4.608;2022-07-29T05:05:46;100285.63;;;17.00
23992;BMP280;12205;50.600;4.608;2022-07-29T05:08:13;100289.47;;;16.99
23992;BMP280;12205;50.600;4.608;2022-07-29T05:10:40;100293.28;;;17.01
23992;BMP280;12205;50.600;4.608;2022-07-29T05:13:08;100293.28;;;17.05
23992;BMP280;12205;50.600;4.608;2022-07-29T05:15:37;100303.28;;;17.08
23992;BMP280;12205;50.600;4.608;2022-07-29T05:18:05;100304.00;;;17.12
23992;BMP280;12205;50.600;4.608;2022-07-29T05:20:32;100307.88;;;17.15
23992;BMP280;12205;50.600;4.608;2022-07-29T05:23:01;100308.63;;;17.15
23992;BMP280;12205;50.600;4.608;2022-07-29T05:25:29;100307.81;;;17.18
23992;BMP280;12205;50.600;4.608;2022-07-29T05:27:57;100312.06;;;17.19
23992;BMP280;12205;50.600;4.608;2022-07-29T05:30:24;100303.88;;;17.26
23992;BMP280;12205;50.600;4.608;2022-07-29T05:32:53;100296.16;;;17.28
23992;BMP280;12205;50.600;4.608;2022-07-29T05:35:20;100299.22;;;17.31
23992;BMP280;12205;50.600;4.608;2022-07-29T05:37:47;100274.22;;;17.19
23992;BMP280;12205;50.600;4.608;2022-07-29T05:40:14;100298.34;;;17.41
23992;BMP280;12205;50.600;4.608;2022-07-29T05:42:41;100302.88;;;17.47
23992;BMP280;12205;50.600;4.608;2022-07-29T05:45:10;100300.53;;;17.53
23992;BMP280;12205;50.600;4.608;2022-07-29T05:47:37;100304.34;;;17.56
23992;BMP280;12205;50.600;4.608;2022-07-29T05:50:07;100311.25;;;17.60
23992;BMP280;12205;50.600;4.608;2022-07-29T05:52:35;100283.56;;;17.49
23992;BMP280;12205;50.600;4.608;2022-07-29T05:55:03;100292.66;;;17.66
23992;BMP280;12205;50.600;4.608;2022-07-29T05:57:32;100309.50;;;17.77
23992;BMP280;12205;50.600;4.608;2022-07-29T05:59:59;100272.69;;;17.56
23992;BMP280;12205;50.600;4.608;2022-07-29T06:02:26;100317.13;;;17.86
23992;BMP280;12205;50.600;4.608;2022-07-29T06:04:53;100320.94;;;17.88
23992;BMP280;12205;50.600;4.608;2022-07-29T06:07:22;100323.94;;;17.98
23992;BMP280;12205;50.600;4.608;2022-07-29T06:09:49;100321.13;;;18.05
23992;BMP280;12205;50.600;4.608;2022-07-29T06:12:16;100321.44;;;18.11
23992;BMP280;12205;50.600;4.608;2022-07-29T06:14:43;100320.66;;;18.14
23992;BMP280;12205;50.600;4.608;2022-07-29T06:17:11;100319.38;;;18.22
23992;BMP280;12205;50.600;4.608;2022-07-29T06:19:38;100308.53;;;18.22
23992;BMP280;12205;50.600;4.608;2022-07-29T06:22:06;100311.88;;;18.33
23992;BMP280;12205;50.600;4.608;2022-07-29T06:24:36;100318.69;;;18.41
23992;BMP280;12205;50.600;4.608;2022-07-29T06:27:07;100312.81;;;18.46
23992;BMP280;12205;50.600;4.608;2022-07-29T06:29:35;100316.19;;;18.54
23992;BMP280;12205;50.600;4.608;2022-07-29T06:32:03;100313.75;;;18.60
23992;BMP280;12205;50.600;4.608;2022-07-29T06:34:30;100312.16;;;18.66
23992;BMP280;12205;50.600;4.608;2022-07-29T06:36:57;100300.50;;;18.69
23992;BMP280;12205;50.600;4.608;2022-07-29T06:39:24;100323.56;;;18.77
23992;BMP280;12205;50.600;4.608;2022-07-29T06:41:53;100324.97;;;18.85
23992;BMP280;12205;50.600;4.608;2022-07-29T06:44:24;100316.47;;;18.83
23992;BMP280;12205;50.600;4.608;2022-07-29T06:46:51;100320.72;;;18.84
23992;BMP280;12205;50.600;4.608;2022-07-29T06:49:20;100324.13;;;18.89
23992;BMP280;12205;50.600;4.608;2022-07-29T06:51:47;100328.28;;;18.97
23992;BMP280;12205;50.600;4.608;2022-07-29T06:54:14;100334.06;;;18.99
23992;BMP280;12205;50.600;4.608;2022-07-29T06:56:42;100339.38;;;19.02
23992;BMP280;12205;50.600;4.608;2022-07-29T06:59:12;100330.84;;;19.04
23992;BMP280;12205;50.600;4.608;2022-07-29T07:01:41;100333.44;;;19.11
23992;BMP280;12205;50.600;4.608;2022-07-29T07:04:10;100341.47;;;19.18
23992;BMP280;12205;50.600;4.608;2022-07-29T07:06:38;100337.16;;;19.21
23992;BMP280;12205;50.600;4.608;2022-07-29T07:09:05;100340.50;;;19.29
23992;BMP280;12205;50.600;4.608;2022-07-29T07:11:33;100308.16;;;19.18
23992;BMP280;12205;50.600;4.608;2022-07-29T07:14:11;100360.41;;;19.42
23992;BMP280;12205;50.600;4.608;2022-07-29T07:16:38;100343.34;;;19.41
23992;BMP280;12205;50.600;4.608;2022-07-29T07:19:05;100330.88;;;19.44
23992;BMP280;12205;50.600;4.608;2022-07-29T07:21:33;100344.66;;;19.53
23992;BMP280;12205;50.600;4.608;2022-07-29T07:24:01;100339.94;;;19.57
23992;BMP280;12205;50.600;4.608;2022-07-29T07:26:28;100340.66;;;19.61
23992;BMP280;12205;50.600;4.608;2022-07-29T07:28:55;100342.09;;;19.66
23992;BMP280;12205;50.600;4.608;2022-07-29T07:31:24;100316.59;;;19.63
23992;BMP280;12205;50.600;4.608;2022-07-29T07:33:51;100341.75;;;19.84
23992;BMP280;12205;50.600;4.608;2022-07-29T07:36:19;100347.78;;;19.92
23992;BMP280;12205;50.600;4.608;2022-07-29T07:38:46;100344.59;;;19.97
23992;BMP280;12205;50.600;4.608;2022-07-29T07:41:13;100348.25;;;20.06
23992;BMP280;12205;50.600;4.608;2022-07-29T07:43:41;100339.59;;;20.12
23992;BMP280;12205;50.600;4.608;2022-07-29T07:46:08;100348.78;;;20.18
23992;BMP280;12205;50.600;4.608;2022-07-29T07:48:36;100347.09;;;20.24
23992;BMP280;12205;50.600;4.608;2022-07-29T07:51:03;100343.34;;;20.34
23992;BMP280;12205;50.600;4.608;2022-07-29T07:53:31;100350.50;;;20.44
23992;BMP280;12205;50.600;4.608;2022-07-29T07:55:58;100340.56;;;20.54
23992;BMP280;12205;50.600;4.608;2022-07-29T07:58:25;100333.84;;;20.59
23992;BMP280;12205;50.600;4.608;2022-07-29T08:00:52;100344.38;;;20.73
23992;BMP280;12205;50.600;4.608;2022-07-29T08:03:19;100341.91;;;20.79
23992;BMP280;12205;50.600;4.608;2022-07-29T08:05:48;100350.22;;;20.88
23992;BMP280;12205;50.600;4.608;2022-07-29T08:08:16;100353.16;;;20.94
23992;BMP280;12205;50.600;4.608;2022-07-29T08:10:43;100358.34;;;21.04
23992;BMP280;12205;50.600;4.608;2022-07-29T08:13:24;100364.38;;;21.12
23992;BMP280;12205;50.600;4.608;2022-07-29T08:15:52;100360.28;;;21.20
23992;BMP280;12205;50.600;4.608;2022-07-29T08:18:25;100363.97;;;21.26
23992;BMP280;12205;50.600;4.608;2022-07-29T08:20:54;100366.16;;;21.32
23992;BMP280;12205;50.600;4.608;2022-07-29T08:23:22;100359.34;;;21.40
23992;BMP280;12205;50.600;4.608;2022-07-29T08:25:49;100359.13;;;21.47
23992;BMP280;12205;50.600;4.608;2022-07-29T08:28:17;100364.06;;;21.52
23992;BMP280;12205;50.600;4.608;2022-07-29T08:30:44;100363.28;;;21.52
23992;BMP280;12205;50.600;4.608;2022-07-29T08:33:11;100361.47;;;21.61
23992;BMP280;12205;50.600;4.608;2022-07-29T08:35:39;100362.91;;;21.66
23992;BMP280;12205;50.600;4.608;2022-07-29T08:38:07;100364.09;;;21.78
23992;BMP280;12205;50.600;4.608;2022-07-29T08:40:35;100368.56;;;21.84
23992;BMP280;12205;50.600;4.608;2022-07-29T08:43:08;100372.16;;;21.94
23992;BMP280;12205;50.600;4.608;2022-07-29T08:45:43;100363.81;;;22.01
23992;BMP280;12205;50.600;4.608;2022-07-29T08:48:12;100360.66;;;22.03
23992;BMP280;12205;50.600;4.608;2022-07-29T08:50:41;100365.41;;;22.12
23992;BMP280;12205;50.600;4.608;2022-07-29T08:53:13;100366.06;;;22.16
23992;BMP280;12205;50.600;4.608;2022-07-29T08:55:43;100364.34;;;22.22
23992;BMP280;12205;50.600;4.608;2022-07-29T08:58:12;100370.22;;;22.33
23992;BMP280;12205;50.600;4.608;2022-07-29T09:00:43;100379.38;;;22.39
23992;BMP280;12205;50.600;4.608;2022-07-29T09:03:15;100372.81;;;22.50
23992;BMP280;12205;50.600;4.608;2022-07-29T09:05:44;100366.47;;;22.53
23992;BMP280;12205;50.600;4.608;2022-07-29T09:08:14;100367.13;;;22.57
23992;BMP280;12205;50.600;4.608;2022-07-29T09:10:42;100366.88;;;22.64
23992;BMP280;12205;50.600;4.608;2022-07-29T09:13:09;100368.16;;;22.72
23992;BMP280;12205;50.600;4.608;2022-07-29T09:15:37;100360.38;;;22.83
23992;BMP280;12205;50.600;4.608;2022-07-29T09:18:04;100370.72;;;22.88
23992;BMP280;12205;50.600;4.608;2022-07-29T09:20:31;100370.72;;;22.88
23992;BMP280;12205;50.600;4.608;2022-07-29T09:23:14;100359.84;;;22.88
23992;BMP280;12205;50.600;4.608;2022-07-29T09:25:41;100361.03;;;22.87
23992;BMP280;12205;50.600;4.608;2022-07-29T09:28:12;100366.94;;;22.86
23992;BMP280;12205;50.600;4.608;2022-07-29T09:30:51;100360.00;;;22.94
23992;BMP280;12205;50.600;4.608;2022-07-29T09:33:19;100364.78;;;23.03
23992;BMP280;12205;50.600;4.608;2022-07-29T09:35:59;100370.63;;;23.14
23992;BMP280;12205;50.600;4.608;2022-07-29T09:38:28;100378.00;;;23.26
23992;BMP280;12205;50.600;4.608;2022-07-29T09:41:00;100379.50;;;23.27
23992;BMP280;12205;50.600;4.608;2022-07-29T09:43:28;100376.97;;;23.33
23992;BMP280;12205;50.600;4.608;2022-07-29T09:45:55;100379.56;;;23.37
23992;BMP280;12205;50.600;4.608;2022-07-29T09:48:24;100369.63;;;23.43
23992;BMP280;12205;50.600;4.608;2022-07-29T09:50:52;100369.66;;;23.52
23992;BMP280;12205;50.600;4.608;2022-07-29T09:53:33;100376.06;;;23.58
23992;BMP280;12205;50.600;4.608;2022-07-29T09:56:02;100371.22;;;23.62
23992;BMP280;12205;50.600;4.608;2022-07-29T09:58:30;100366.25;;;23.70
23992;BMP280;12205;50.600;4.608;2022-07-29T10:00:59;100373.72;;;23.79
23992;BMP280;12205;50.600;4.608;2022-07-29T10:03:26;100373.13;;;23.84
23992;BMP280;12205;50.600;4.608;2022-07-29T10:06:11;100369.53;;;23.87
23992;BMP280;12205;50.600;4.608;2022-07-29T10:08:42;100366.78;;;23.96
23992;BMP280;12205;50.600;4.608;2022-07-29T10:11:12;100369.56;;;24.05
23992;BMP280;12205;50.600;4.608;2022-07-29T10:13:42;100360.78;;;24.10
23992;BMP280;12205;50.600;4.608;2022-07-29T10:16:10;100363.84;;;24.22
23992;BMP280;12205;50.600;4.608;2022-07-29T10:18:39;100366.63;;;24.31
23992;BMP280;12205;50.600;4.608;2022-07-29T10:21:06;100376.06;;;24.39
23992;BMP280;12205;50.600;4.608;2022-07-29T10:23:34;100365.41;;;24.41
23992;BMP280;12205;50.600;4.608;2022-07-29T10:26:04;100372.41;;;24.42
23992;BMP280;12205;50.600;4.608;2022-07-29T10:28:31;100372.28;;;24.46
23992;BMP280;12205;50.600;4.608;2022-07-29T10:31:04;100372.41;;;24.51
23992;BMP280;12205;50.600;4.608;2022-07-29T10:33:50;100378.47;;;24.65
23992;BMP280;12205;50.600;4.608;2022-07-29T10:36:35;100372.09;;;24.77
23992;BMP280;12205;50.600;4.608;2022-07-29T10:39:21;100361.16;;;24.77
23992;BMP280;12205;50.600;4.608;2022-07-29T10:42:04;100382.13;;;24.99
23992;BMP280;12205;50.600;4.608;2022-07-29T10:44:34;100376.66;;;25.08
23992;BMP280;12205;50.600;4.608;2022-07-29T10:47:01;100379.06;;;25.15
23992;BMP280;12205;50.600;4.608;2022-07-29T10:49:28;100364.44;;;25.18
23992;BMP280;12205;50.600;4.608;2022-07-29T10:52:06;100375.25;;;25.31
23992;BMP280;12205;50.600;4.608;2022-07-29T10:54:49;100369.72;;;25.40
23992;BMP280;12205;50.600;4.608;2022-07-29T10:57:23;100360.69;;;25.58
23992;BMP280;12205;50.600;4.608;2022-07-29T11:00:31;100361.38;;;25.77
23992;BMP280;12205;50.600;4.608;2022-07-29T11:02:59;100363.00;;;25.93
23992;BMP280;12205;50.600;4.608;2022-07-29T11:05:26;100366.81;;;26.10
23992;BMP280;12205;50.600;4.608;2022-07-29T11:08:19;100365.59;;;26.35
23992;BMP280;12205;50.600;4.608;2022-07-29T11:10:49;100371.69;;;26.54
23992;BMP280;12205;50.600;4.608;2022-07-29T11:13:51;100361.84;;;26.62
23992;BMP280;12205;50.600;4.608;2022-07-29T11:16:22;100361.50;;;26.70
23992;BMP280;12205;50.600;4.608;2022-07-29T11:19:20;100373.81;;;26.89
23992;BMP280;12205;50.600;4.608;2022-07-29T11:21:48;100368.13;;;27.07
23992;BMP280;12205;50.600;4.608;2022-07-29T11:24:19;100370.56;;;27.35
23992;BMP280;12205;50.600;4.608;2022-07-29T11:27:15;100367.69;;;27.59
23992;BMP280;12205;50.600;4.608;2022-07-29T11:29:55;100371.75;;;27.64
23992;BMP280;12205;50.600;4.608;2022-07-29T11:32:24;100368.44;;;27.60
23992;BMP280;12205;50.600;4.608;2022-07-29T11:35:12;100359.88;;;27.73
23992;BMP280;12205;50.600;4.608;2022-07-29T11:37:40;100376.47;;;27.99
23992;BMP280;12205;50.600;4.608;2022-07-29T11:40:15;100365.59;;;28.10
23992;BMP280;12205;50.600;4.608;2022-07-29T11:42:46;100371.09;;;28.30
23992;BMP280;12205;50.600;4.608;2022-07-29T11:45:17;100370.34;;;28.56
23992;BMP280;12205;50.600;4.608;2022-07-29T11:47:51;100366.16;;;28.87
23992;BMP280;12205;50.600;4.608;2022-07-29T11:50:34;100368.97;;;28.98
23992;BMP280;12205;50.600;4.608;2022-07-29T11:53:10;100378.03;;;29.04
23992;BMP280;12205;50.600;4.608;2022-07-29T11:55:40;100373.56;;;29.12
23992;BMP280;12205;50.600;4.608;2022-07-29T11:58:08;100368.69;;;29.28
23992;BMP280;12205;50.600;4.608;2022-07-29T12:00:40;100381.91;;;29.55
23992;BMP280;12205;50.600;4.608;2022-07-29T12:03:10;100374.25;;;29.82
23992;BMP280;12205;50.600;4.608;2022-07-29T12:05:40;100369.03;;;29.90
23992;BMP280;12205;50.600;4.608;2022-07-29T12:08:11;100381.19;;;29.66
23992;BMP280;12205;50.600;4.608;2022-07-29T12:10:39;100374.19;;;29.65
23992;BMP280;12205;50.600;4.608;2022-07-29T12:13:08;100375.22;;;29.73
23992;BMP280;12205;50.600;4.608;2022-07-29T12:15:37;100378.75;;;29.85
23992;BMP280;12205;50.600;4.608;2022-07-29T12:18:15;100376.09;;;30.07
23992;BMP280;12205;50.600;4.608;2022-07-29T12:20:44;100378.22;;;30.69
23992;BMP280;12205;50.600;4.608;2022-07-29T12:23:11;100374.13;;;31.32
23992;BMP280;12205;50.600;4.608;2022-07-29T12:25:41;100354.22;;;31.50
23992;BMP280;12205;50.600;4.608;2022-07-29T12:28:11;100385.97;;;31.91
23992;BMP280;12205;50.600;4.608;2022-07-29T12:30:44;100395.22;;;31.99
23992;BMP280;12205;50.600;4.608;2022-07-29T12:33:21;100396.34;;;31.79
23992;BMP280;12205;50.600;4.608;2022-07-29T12:35:51;100398.66;;;31.69
23992;BMP280;12205;50.600;4.608;2022-07-29T12:38:19;100379.13;;;31.45
23992;BMP280;12205;50.600;4.608;2022-07-29T12:40:48;100394.47;;;31.34
23992;BMP280;12205;50.600;4.608;2022-07-29T12:43:18;100392.94;;;31.45
23992;BMP280;12205;50.600;4.608;2022-07-29T12:45:49;100392.91;;;32.14
23992;BMP280;12205;50.600;4.608;2022-07-29T12:48:30;100386.34;;;33.08
23992;BMP280;12205;50.600;4.608;2022-07-29T12:51:02;100392.00;;;34.02
23992;BMP280;12205;50.600;4.608;2022-07-29T12:54:03;100387.81;;;34.41
23992;BMP280;12205;50.600;4.608;2022-07-29T12:56:33;100383.84;;;34.82
23992;BMP280;12205;50.600;4.608;2022-07-29T12:59:15;100389.06;;;35.25
23992;BMP280;12205;50.600;4.608;2022-07-29T13:01:45;100392.81;;;35.76
23992;BMP280;12205;50.600;4.608;2022-07-29T13:04:25;100388.63;;;36.24
23992;BMP280;12205;50.600;4.608;2022-07-29T13:07:00;100399.09;;;36.31
23992;BMP280;12205;50.600;4.608;2022-07-29T13:09:38;100387.25;;;36.67
23992;BMP280;12205;50.600;4.608;2022-07-29T13:12:08;100395.78;;;36.90
23992;BMP280;12205;50.600;4.608;2022-07-29T13:14:38;100387.13;;;37.17
23992;BMP280;12205;50.600;4.608;2022-07-29T13:17:09;100398.25;;;35.81
23992;BMP280;12205;50.600;4.608;2022-07-29T13:19:38;100396.66;;;35.72
23992;BMP280;12205;50.600;4.608;2022-07-29T13:22:07;100398.84;;;36.01
23992;BMP280;12205;50.600;4.608;2022-07-29T13:24:47;100397.72;;;36.04
23992;BMP280;12205;50.600;4.608;2022-07-29T13:27:15;100383.91;;;36.61
23992;BMP280;12205;50.600;4.608;2022-07-29T13:29:43;100402.25;;;37.29
23992;BMP280;12205;50.600;4.608;2022-07-29T13:32:12;100390.34;;;37.28
23992;BMP280;12205;50.600;4.608;2022-07-29T13:34:40;100397.56;;;37.91
23992;BMP280;12205;50.600;4.608;2022-07-29T13:37:07;100399.03;;;38.22
23992;BMP280;12205;50.600;4.608;2022-07-29T13:39:34;100401.41;;;38.64
23992;BMP280;12205;50.600;4.608;2022-07-29T13:42:03;100399.91;;;38.63
23992;BMP280;12205;50.600;4.608;2022-07-29T13:44:30;100397.16;;;37.71
23992;BMP280;12205;50.600;4.608;2022-07-29T13:46:57;100397.91;;;36.76
23992;BMP280;12205;50.600;4.608;2022-07-29T13:49:27;100402.47;;;36.95
23992;BMP280;12205;50.600;4.608;2022-07-29T13:51:54;100403.78;;;36.36
23992;BMP280;12205;50.600;4.608;2022-07-29T13:54:22;100404.97;;;35.52
23992;BMP280;12205;50.600;4.608;2022-07-29T13:56:50;100393.44;;;35.82
23992;BMP280;12205;50.600;4.608;2022-07-29T13:59:18;100406.38;;;36.63
23992;BMP280;12205;50.600;4.608;2022-07-29T14:01:45;100388.72;;;37.41
23992;BMP280;12205;50.600;4.608;2022-07-29T14:04:12;100394.94;;;38.08
23992;BMP280;12205;50.600;4.608;2022-07-29T14:06:41;100388.97;;;38.42
23992;BMP280;12205;50.600;4.608;2022-07-29T14:09:08;100395.50;;;37.84
23992;BMP280;12205;50.600;4.608;2022-07-29T14:11:35;100396.97;;;36.74
23992;BMP280;12205;50.600;4.608;2022-07-29T14:14:04;100390.91;;;36.33
23992;BMP280;12205;50.600;4.608;2022-07-29T14:16:31;100399.28;;;36.62
23992;BMP280;12205;50.600;4.608;2022-07-29T14:18:58;100398.47;;;36.25